Main page
METAR-TAF:

METAR-TAF

Airports :

Mécheria Airport

Mécheria, Algeria

latitude: 34-56N, longitude: 000-26W, elevation: 1149 m

Current weather observation

The report was made 1 hour and 2 minutes ago, at 08:00 UTC
Wind 14 kt from the South
Temperature 10°C
Humidity 71%
Pressure 1012 hPa
Visibility: 8000 m
Few clouds at a height of 2600 ft
Scattered clouds at a height of 10000 ft

METAR: DAAY 180800Z 18014KT 8000 FEW026 SCT100 10/05 Q1012

Time: 10:02 (09:02 UTC)

Forecast

The report was made 1 hour and 2 minutes ago, at 08:00 UTC
Forecast valid from 18 at 09 UTC to 18 at 18 UTC
Wind 16 kt from the South
Visibility 10 km or more
Few clouds at a height of 2600 ft
Scattered clouds at a height of 10000 ft
Temporary
from 18 at 11 UTC to 18 at 18 UTC
Visibility: 4000 m
Low drifting sand

TAF: DAAY 180800Z 1809/1818 18016KT 9999 FEW026 SCT100 TEMPO 1811/1818 4000 DRSA

Weather observations and forecasts of more than 4000 airports (METAR and TAF reports).

The available stations are represented by yellow and red dots on the map.

Hover mouse over dot to see the name of the station.

Then click to see weather observations and forecasts.

To change the map : click on the green buttons with a black cross to zoom in, on the green button with a dash to zoom out, or on the green arrows for adjacent maps.


METAR-TAF: